createdAt,value
2018-09-01T00:01:33.959Z,14.60
2018-09-01T00:04:02.177Z,14.60
2018-09-01T00:06:30.397Z,14.60
2018-09-01T00:08:59.057Z,14.60
2018-09-01T00:11:27.289Z,14.60
2018-09-01T00:13:55.464Z,14.40
2018-09-01T00:16:23.692Z,14.40
2018-09-01T00:18:51.909Z,14.40
2018-09-01T00:21:23.819Z,14.20
2018-09-01T00:23:52.047Z,14.20
2018-09-01T00:26:20.311Z,14.10
2018-09-01T00:28:48.529Z,14.10
2018-09-01T00:31:16.748Z,14.10
2018-09-01T00:33:44.984Z,14.20
2018-09-01T00:36:13.230Z,14.30
2018-09-01T00:38:47.011Z,14.20
2018-09-01T00:41:15.661Z,14.10
2018-09-01T00:43:43.831Z,14.10
2018-09-01T00:46:12.039Z,14.20
2018-09-01T00:48:40.265Z,14.20
2018-09-01T00:51:08.471Z,14.20
2018-09-01T00:53:36.683Z,14.10
2018-09-01T00:56:05.040Z,14.10
2018-09-01T00:58:33.243Z,14.20
2018-09-01T01:01:01.452Z,14.20
2018-09-01T01:03:29.693Z,14.20
2018-09-01T01:06:01.700Z,14.30
2018-09-01T01:08:29.903Z,14.30
2018-09-01T01:10:58.149Z,14.30
2018-09-01T01:13:26.321Z,14.30
2018-09-01T01:15:54.663Z,14.20
2018-09-01T01:18:22.863Z,14.30
2018-09-01T01:20:51.095Z,14.30
2018-09-01T01:23:19.290Z,14.30
2018-09-01T01:25:47.502Z,14.20
2018-09-01T01:28:15.736Z,14.20
2018-09-01T01:30:44.186Z,14.20
2018-09-01T01:33:12.447Z,14.20
2018-09-01T01:35:40.602Z,14.30
2018-09-01T01:38:08.839Z,14.30
2018-09-01T01:40:37.040Z,14.30
2018-09-01T01:43:05.502Z,14.30
2018-09-01T01:45:33.687Z,14.30
2018-09-01T01:48:01.895Z,14.30
2018-09-01T01:50:30.091Z,14.30
2018-09-01T01:52:58.320Z,14.30
2018-09-01T01:55:26.538Z,14.20
2018-09-01T01:57:54.735Z,14.20
2018-09-01T02:00:23.123Z,14.10
2018-09-01T02:02:51.326Z,14.10
2018-09-01T02:05:20.702Z,14.10
2018-09-01T02:07:53.228Z,14.10
2018-09-01T02:10:21.482Z,14.10
2018-09-01T02:12:49.650Z,14.00
2018-09-01T02:15:18.548Z,13.90
2018-09-01T02:17:46.727Z,13.90
2018-09-01T02:20:14.940Z,13.90
2018-09-01T02:22:46.257Z,13.90
2018-09-01T02:25:14.487Z,13.90
2018-09-01T02:27:43.608Z,13.90
2018-09-01T02:30:11.812Z,13.90
2018-09-01T02:32:40.008Z,14.00
2018-09-01T02:35:08.569Z,14.00
2018-09-01T02:37:36.798Z,13.80
2018-09-01T02:40:05.008Z,13.90
2018-09-01T02:42:33.247Z,13.90
2018-09-01T02:45:01.484Z,13.90
2018-09-01T02:47:29.732Z,14.00
2018-09-01T02:49:57.973Z,14.10
2018-09-01T02:52:37.489Z,14.00
2018-09-01T02:55:06.115Z,13.90
2018-09-01T02:57:34.514Z,13.90
2018-09-01T03:00:04.492Z,13.90
2018-09-01T03:02:38.083Z,13.80
2018-09-01T03:05:06.395Z,13.90
2018-09-01T03:07:39.529Z,13.90
2018-09-01T03:10:07.742Z,13.80
2018-09-01T03:12:36.231Z,13.90
2018-09-01T03:15:04.508Z,13.90
2018-09-01T03:17:32.738Z,13.90
2018-09-01T03:20:01.276Z,13.80
2018-09-01T03:22:29.459Z,13.80
2018-09-01T03:24:57.624Z,13.80
2018-09-01T03:27:25.976Z,13.70
2018-09-01T03:29:54.185Z,13.70
2018-09-01T03:32:22.604Z,13.70
2018-09-01T03:34:50.836Z,13.70
2018-09-01T03:37:19.064Z,13.70
2018-09-01T03:39:47.288Z,13.70
2018-09-01T03:42:15.469Z,13.80
2018-09-01T03:44:43.700Z,13.80
2018-09-01T03:47:11.928Z,13.80
2018-09-01T03:49:40.088Z,13.80
2018-09-01T03:52:08.300Z,13.80
2018-09-01T03:54:36.451Z,13.80
2018-09-01T03:57:04.680Z,13.80
2018-09-01T03:59:32.826Z,13.80
2018-09-01T04:02:01.155Z,13.80
2018-09-01T04:04:29.608Z,13.80
2018-09-01T04:06:57.820Z,13.80
2018-09-01T04:09:26.067Z,13.80
2018-09-01T04:11:54.300Z,13.80
2018-09-01T04:14:22.485Z,13.70
2018-09-01T04:16:50.704Z,13.80
2018-09-01T04:19:19.954Z,13.70
2018-09-01T04:21:50.186Z,13.80
2018-09-01T04:24:18.999Z,13.80
2018-09-01T04:26:47.659Z,13.70
2018-09-01T04:29:16.751Z,13.80
2018-09-01T04:31:45.203Z,13.90
2018-09-01T04:34:14.046Z,13.80
2018-09-01T04:36:42.422Z,13.90
2018-09-01T04:39:16.592Z,13.80
2018-09-01T04:41:44.776Z,13.80
2018-09-01T04:44:12.992Z,13.70
2018-09-01T04:46:41.656Z,13.80
2018-09-01T04:49:09.854Z,13.80
2018-09-01T04:51:38.039Z,13.80
2018-09-01T04:54:09.408Z,13.80
2018-09-01T04:56:37.584Z,13.80
2018-09-01T04:59:05.827Z,13.70
2018-09-01T05:01:34.553Z,13.70
2018-09-01T05:04:02.780Z,13.80
2018-09-01T05:06:31.006Z,13.80
2018-09-01T05:08:59.241Z,13.80
2018-09-01T05:11:27.428Z,13.80
2018-09-01T05:13:55.610Z,13.80
2018-09-01T05:16:23.963Z,13.80
2018-09-01T05:18:52.144Z,13.70
2018-09-01T05:21:20.360Z,13.70
2018-09-01T05:23:48.570Z,13.80
2018-09-01T05:26:16.801Z,13.70
2018-09-01T05:28:45.050Z,13.70
2018-09-01T05:31:13.245Z,13.70
2018-09-01T05:33:41.451Z,13.70
2018-09-01T05:36:09.640Z,13.70
2018-09-01T05:38:37.867Z,13.60
2018-09-01T05:41:06.220Z,13.60
2018-09-01T05:43:34.456Z,13.50
2018-09-01T05:46:02.696Z,13.60
2018-09-01T05:48:30.889Z,13.60
2018-09-01T05:50:59.110Z,13.70
2018-09-01T05:53:27.311Z,13.60
2018-09-01T05:55:59.595Z,13.60
2018-09-01T05:58:27.848Z,13.60
2018-09-01T06:00:56.043Z,13.60
2018-09-01T06:03:24.274Z,13.60
2018-09-01T06:05:52.465Z,13.70
2018-09-01T06:08:20.687Z,13.70
2018-09-01T06:10:48.900Z,13.80
2018-09-01T06:13:17.088Z,13.80
2018-09-01T06:15:45.343Z,13.90
2018-09-01T06:18:13.582Z,14.00
2018-09-01T06:20:41.919Z,14.10
2018-09-01T06:23:10.188Z,14.10
2018-09-01T06:25:41.701Z,14.10
2018-09-01T06:28:13.948Z,14.30
2018-09-01T06:30:44.972Z,14.50
2018-09-01T06:33:13.180Z,14.50
2018-09-01T06:35:41.364Z,14.40
2018-09-01T06:38:09.612Z,14.40
2018-09-01T06:40:37.803Z,14.40
2018-09-01T06:43:06.067Z,14.40
2018-09-01T06:45:34.220Z,14.50
2018-09-01T06:48:02.463Z,14.40
2018-09-01T06:50:30.749Z,14.30
2018-09-01T06:52:58.965Z,14.30
2018-09-01T06:55:27.157Z,14.30
2018-09-01T06:57:59.212Z,14.30
2018-09-01T07:00:27.464Z,14.30
2018-09-01T07:02:56.731Z,14.30
2018-09-01T07:05:25.314Z,14.40
2018-09-01T07:07:53.543Z,14.60
2018-09-01T07:10:22.675Z,14.70
2018-09-01T07:12:50.853Z,14.70
2018-09-01T07:15:19.090Z,14.80
2018-09-01T07:17:47.304Z,14.90
2018-09-01T07:20:15.524Z,15.00
2018-09-01T07:22:43.723Z,15.20
2018-09-01T07:25:12.075Z,15.50
2018-09-01T07:27:40.656Z,15.80
2018-09-01T07:30:10.002Z,16.00
2018-09-01T07:32:38.380Z,16.20
2018-09-01T07:35:06.848Z,16.40
2018-09-01T07:37:35.052Z,16.40
2018-09-01T07:40:03.341Z,16.40
2018-09-01T07:42:36.271Z,16.40
2018-09-01T07:45:04.497Z,16.40
2018-09-01T07:47:32.735Z,16.40
2018-09-01T07:50:01.032Z,16.40
2018-09-01T07:52:29.276Z,16.40
2018-09-01T07:54:57.554Z,16.40
2018-09-01T07:57:26.716Z,16.50
2018-09-01T07:59:54.927Z,16.50
2018-09-01T08:02:23.203Z,16.50
2018-09-01T08:04:51.473Z,16.60
2018-09-01T08:07:19.746Z,16.80
2018-09-01T08:09:47.925Z,16.70
2018-09-01T08:12:16.175Z,16.80
2018-09-01T08:14:44.408Z,17.10
2018-09-01T08:17:12.610Z,17.30
2018-09-01T08:19:40.816Z,17.40
2018-09-01T08:22:09.052Z,17.30
2018-09-01T08:24:37.280Z,17.40
2018-09-01T08:27:06.039Z,17.50
2018-09-01T08:29:34.252Z,17.60
2018-09-01T08:32:02.530Z,18.00
2018-09-01T08:34:30.765Z,18.30
2018-09-01T08:36:58.973Z,18.20
2018-09-01T08:39:27.253Z,18.30
2018-09-01T08:41:55.503Z,18.10
2018-09-01T08:44:27.589Z,17.90
2018-09-01T08:46:55.810Z,18.00
2018-09-01T08:49:24.324Z,17.70
2018-09-01T08:51:52.534Z,18.10
2018-09-01T08:54:20.792Z,18.30
2018-09-01T08:56:49.073Z,18.40
2018-09-01T08:59:17.256Z,18.50
2018-09-01T09:01:45.472Z,18.20
2018-09-01T09:04:13.700Z,17.60
2018-09-01T09:06:41.948Z,17.80
2018-09-01T09:09:10.145Z,17.70
2018-09-01T09:11:38.469Z,17.70
2018-09-01T09:14:11.318Z,17.50
2018-09-01T09:16:39.579Z,17.50
2018-09-01T09:19:07.832Z,17.60
2018-09-01T09:21:36.042Z,17.60
2018-09-01T09:24:05.366Z,17.80
2018-09-01T09:26:33.584Z,17.80
2018-09-01T09:29:01.779Z,18.00
2018-09-01T09:31:33.199Z,18.30
2018-09-01T09:34:01.680Z,18.20
2018-09-01T09:36:35.481Z,18.10
2018-09-01T09:39:05.287Z,18.20
2018-09-01T09:41:33.521Z,18.20
2018-09-01T09:44:04.928Z,18.50
2018-09-01T09:46:33.223Z,18.70
2018-09-01T09:49:01.540Z,18.80
2018-09-01T09:51:30.045Z,19.10
2018-09-01T09:53:58.286Z,19.40
2018-09-01T09:56:26.538Z,19.60
2018-09-01T09:58:54.828Z,19.40
2018-09-01T10:01:33.163Z,19.50
2018-09-01T10:04:01.640Z,19.70
2018-09-01T10:06:29.895Z,19.10
2018-09-01T10:08:58.144Z,19.20
2018-09-01T10:11:26.423Z,19.20
2018-09-01T10:13:54.642Z,19.00
2018-09-01T10:16:22.932Z,19.10
2018-09-01T10:18:52.154Z,19.30
2018-09-01T10:21:20.416Z,19.20
2018-09-01T10:23:48.671Z,19.40
2018-09-01T10:26:17.343Z,19.20
2018-09-01T10:28:45.560Z,19.50
2018-09-01T10:31:13.828Z,19.40
2018-09-01T10:33:42.056Z,19.70
2018-09-01T10:36:10.259Z,19.80
2018-09-01T10:38:38.610Z,19.40
2018-09-01T10:41:06.802Z,19.60
2018-09-01T10:43:35.011Z,19.30
2018-09-01T10:46:03.256Z,19.10
2018-09-01T10:48:31.487Z,19.10
2018-09-01T10:50:59.736Z,19.00
2018-09-01T10:53:27.956Z,19.30
2018-09-01T10:55:56.201Z,19.70
2018-09-01T10:58:24.398Z,19.60
2018-09-01T11:00:52.609Z,19.20
2018-09-01T11:03:20.853Z,19.30
2018-09-01T11:05:49.108Z,19.60
2018-09-01T11:08:17.315Z,19.70
2018-09-01T11:10:45.545Z,19.70
2018-09-01T11:13:13.718Z,19.50
2018-09-01T11:15:41.916Z,19.30
2018-09-01T11:18:10.214Z,19.40
2018-09-01T11:20:38.441Z,19.70
2018-09-01T11:23:06.639Z,19.50
2018-09-01T11:25:34.885Z,19.30
2018-09-01T11:28:03.241Z,19.50
2018-09-01T11:30:31.416Z,19.50
2018-09-01T11:32:59.889Z,19.70
2018-09-01T11:35:28.252Z,19.60
2018-09-01T11:37:56.525Z,19.70
2018-09-01T11:40:24.823Z,20.00
2018-09-01T11:42:54.077Z,20.00
2018-09-01T11:45:22.313Z,19.60
2018-09-01T11:47:53.580Z,20.00
2018-09-01T11:50:21.889Z,20.40
2018-09-01T11:52:50.074Z,20.30
2018-09-01T11:55:18.291Z,20.30
2018-09-01T11:57:46.523Z,20.30
2018-09-01T12:00:14.720Z,20.00
2018-09-01T12:07:35.623Z,19.70
2018-09-01T12:10:03.888Z,19.20
2018-09-01T12:12:32.210Z,19.50
2018-09-01T12:15:00.488Z,18.90
2018-09-01T12:17:28.763Z,19.00
2018-09-01T12:20:04.659Z,19.40
2018-09-01T12:22:32.849Z,19.30
2018-09-01T12:25:01.036Z,19.40
2018-09-01T12:27:29.329Z,19.30
2018-09-01T12:29:57.497Z,19.50
2018-09-01T12:32:37.949Z,20.00
2018-09-01T12:35:07.125Z,20.30
2018-09-01T12:37:36.489Z,20.60
2018-09-01T12:40:05.516Z,21.00
2018-09-01T12:42:33.739Z,21.40
2018-09-01T12:45:01.963Z,21.20
2018-09-01T12:47:30.608Z,21.50
2018-09-01T12:49:58.823Z,21.60
2018-09-01T12:52:27.038Z,21.40
2018-09-01T12:54:55.287Z,20.70
2018-09-01T12:57:23.471Z,20.40
2018-09-01T12:59:51.771Z,20.50
2018-09-01T13:02:21.426Z,20.10
2018-09-01T13:04:50.318Z,20.10
2018-09-01T13:07:18.900Z,19.80
2018-09-01T13:09:47.456Z,19.70
2018-09-01T13:12:15.677Z,19.80
2018-09-01T13:14:44.851Z,19.80
2018-09-01T13:17:13.444Z,19.90
2018-09-01T13:19:42.546Z,19.90
2018-09-01T13:22:10.730Z,20.00
2018-09-01T13:24:39.649Z,20.00
2018-09-01T13:27:07.885Z,20.00
2018-09-01T13:29:36.139Z,20.20
2018-09-01T13:32:04.791Z,20.30
2018-09-01T13:34:33.124Z,20.50
2018-09-01T13:37:01.254Z,20.60
2018-09-01T13:39:29.628Z,20.50
2018-09-01T13:41:57.900Z,20.40
2018-09-01T13:44:26.192Z,20.30
2018-09-01T13:46:54.468Z,20.50
2018-09-01T13:49:22.707Z,20.70
2018-09-01T13:51:50.971Z,20.80
2018-09-01T13:54:19.296Z,20.70
2018-09-01T13:56:47.507Z,20.70
2018-09-01T13:59:15.884Z,20.80
2018-09-01T14:01:44.090Z,21.10
2018-09-01T14:04:15.564Z,21.20
2018-09-01T14:06:43.903Z,21.30
2018-09-01T14:09:12.116Z,21.40
2018-09-01T14:11:40.508Z,21.20
2018-09-01T14:14:08.936Z,20.90
2018-09-01T14:16:37.254Z,20.80
2018-09-01T14:19:05.945Z,20.80
2018-09-01T14:21:34.195Z,20.60
2018-09-01T14:24:03.283Z,20.50
2018-09-01T14:26:31.504Z,20.30
2018-09-01T14:28:59.725Z,20.30
2018-09-01T14:31:28.507Z,20.30
2018-09-01T14:34:00.275Z,20.10
2018-09-01T14:36:28.981Z,19.90
2018-09-01T14:38:57.155Z,20.00
2018-09-01T14:41:25.394Z,20.00
2018-09-01T14:43:53.594Z,20.10
2018-09-01T14:46:21.827Z,20.20
2018-09-01T14:48:50.046Z,20.00
2018-09-01T14:51:18.563Z,20.00
2018-09-01T14:53:46.793Z,19.70
2018-09-01T14:56:15.085Z,19.60
2018-09-01T14:58:43.330Z,19.50
2018-09-01T15:01:11.541Z,19.40
2018-09-01T15:03:39.714Z,19.40
2018-09-01T15:06:07.902Z,19.30
2018-09-01T15:08:36.172Z,19.30
2018-09-01T15:11:04.436Z,19.40
2018-09-01T15:13:32.743Z,19.40
2018-09-01T15:16:00.999Z,19.40
2018-09-01T15:18:29.280Z,19.40
2018-09-01T15:20:57.620Z,19.50
2018-09-01T15:23:26.072Z,19.30
2018-09-01T15:25:54.287Z,19.30
2018-09-01T15:28:22.816Z,19.20
2018-09-01T15:30:51.884Z,19.10
2018-09-01T15:33:20.071Z,18.90
2018-09-01T15:35:51.907Z,19.00
2018-09-01T15:38:20.076Z,19.10
2018-09-01T15:40:48.327Z,19.10
2018-09-01T15:43:16.760Z,19.00
2018-09-01T15:45:44.989Z,18.90
2018-09-01T15:48:13.224Z,19.00
2018-09-01T15:50:44.543Z,18.90
2018-09-01T15:53:12.769Z,18.80
2018-09-01T15:55:41.895Z,18.70
2018-09-01T15:58:10.130Z,18.70
2018-09-01T16:00:38.352Z,18.60
2018-09-01T16:03:06.544Z,18.60
2018-09-01T16:05:38.265Z,18.40
2018-09-01T16:08:06.848Z,18.50
2018-09-01T16:10:35.060Z,18.40
2018-09-01T16:13:03.274Z,18.30
2018-09-01T16:15:31.703Z,18.30
2018-09-01T16:17:59.955Z,18.40
2018-09-01T16:20:31.320Z,18.30
2018-09-01T16:22:59.515Z,18.30
2018-09-01T16:25:27.745Z,18.30
2018-09-01T16:27:56.686Z,18.20
2018-09-01T16:30:25.164Z,18.10
2018-09-01T16:32:53.372Z,18.00
2018-09-01T16:35:21.577Z,17.80
2018-09-01T16:37:49.807Z,17.70
2018-09-01T16:40:18.015Z,17.50
2018-09-01T16:42:46.612Z,17.50
2018-09-01T16:45:15.116Z,17.50
2018-09-01T16:47:43.315Z,17.50
2018-09-01T16:50:11.495Z,17.40
2018-09-01T16:52:39.731Z,17.40
2018-09-01T16:55:07.965Z,17.40
2018-09-01T16:57:36.176Z,17.40
2018-09-01T17:00:05.712Z,17.40
2018-09-01T17:02:33.925Z,17.40
2018-09-01T17:05:02.120Z,17.30
2018-09-01T17:07:33.494Z,17.20
2018-09-01T17:10:01.667Z,17.00
2018-09-01T17:12:30.788Z,17.00
2018-09-01T17:14:59.022Z,17.00
2018-09-01T17:17:27.268Z,16.90
2018-09-01T17:19:55.450Z,16.90
2018-09-01T17:22:23.646Z,16.70
2018-09-01T17:24:51.963Z,16.80
2018-09-01T17:27:20.316Z,16.80
2018-09-01T17:29:48.536Z,16.80
2018-09-01T17:32:16.761Z,16.70
2018-09-01T17:34:44.967Z,16.70
2018-09-01T17:37:20.814Z,16.70
2018-09-01T17:39:49.020Z,16.70
2018-09-01T17:42:17.223Z,16.70
2018-09-01T17:44:45.755Z,16.70
2018-09-01T17:47:14.021Z,16.60
2018-09-01T17:49:42.256Z,16.60
2018-09-01T17:52:14.127Z,16.60
2018-09-01T17:54:42.439Z,16.60
2018-09-01T17:57:11.142Z,16.60
2018-09-01T17:59:39.387Z,16.50
2018-09-01T18:02:07.924Z,16.50
2018-09-01T18:04:36.144Z,16.50
2018-09-01T18:07:04.372Z,16.50
2018-09-01T18:09:32.593Z,16.50
2018-09-01T18:12:00.858Z,16.40
2018-09-01T18:14:29.142Z,16.20
2018-09-01T18:16:57.362Z,16.10
2018-09-01T18:19:25.568Z,16.10
2018-09-01T18:21:53.818Z,16.10
2018-09-01T18:24:22.092Z,16.10
2018-09-01T18:26:51.315Z,16.10
2018-09-01T18:29:19.829Z,16.00
2018-09-01T18:31:48.089Z,16.10
2018-09-01T18:34:16.351Z,16.20
2018-09-01T18:36:45.780Z,16.20
2018-09-01T18:39:14.907Z,16.10
2018-09-01T18:41:43.143Z,16.10
2018-09-01T18:44:11.343Z,16.10
2018-09-01T18:46:39.749Z,16.10
2018-09-01T18:49:08.042Z,16.10
2018-09-01T18:51:36.289Z,16.20
2018-09-01T18:54:04.520Z,16.20
2018-09-01T18:56:32.970Z,16.20
2018-09-01T18:59:01.246Z,16.20
2018-09-01T19:01:29.468Z,16.20
2018-09-01T19:03:57.684Z,16.30
2018-09-01T19:06:25.929Z,16.30
2018-09-01T19:08:54.124Z,16.30
2018-09-01T19:11:22.425Z,16.20
2018-09-01T19:13:50.713Z,16.30
2018-09-01T19:16:18.904Z,16.30
2018-09-01T19:18:47.140Z,16.30
2018-09-01T19:21:15.524Z,16.30
2018-09-01T19:23:43.633Z,16.30
2018-09-01T19:26:11.892Z,16.30
2018-09-01T19:28:40.079Z,16.20
2018-09-01T19:31:08.297Z,16.20
2018-09-01T19:33:36.521Z,16.10
2018-09-01T19:36:05.053Z,16.10
2018-09-01T19:38:33.272Z,16.10
2018-09-01T19:41:01.442Z,16.00
2018-09-01T19:43:29.631Z,16.10
2018-09-01T19:45:58.315Z,16.10
2018-09-01T19:48:27.213Z,16.10
2018-09-01T19:50:55.493Z,16.10
2018-09-01T19:53:23.671Z,16.10
2018-09-01T19:55:55.049Z,16.20
2018-09-01T19:58:23.457Z,16.20
2018-09-01T20:00:52.140Z,16.20
2018-09-01T20:03:20.375Z,16.20
2018-09-01T20:05:48.604Z,16.20
2018-09-01T20:08:16.946Z,16.10
2018-09-01T20:10:48.066Z,16.20
2018-09-01T20:13:16.314Z,16.10
2018-09-01T20:15:44.562Z,16.10
2018-09-01T20:18:12.762Z,16.00
2018-09-01T20:20:41.868Z,15.90
2018-09-01T20:23:10.087Z,15.90
2018-09-01T20:25:38.280Z,15.90
2018-09-01T20:28:07.122Z,15.80
2018-09-01T20:30:35.328Z,15.80
2018-09-01T20:33:03.514Z,15.80
2018-09-01T20:35:38.255Z,15.90
2018-09-01T20:38:06.566Z,15.80
2018-09-01T20:40:34.720Z,15.70
2018-09-01T20:43:03.181Z,15.80
2018-09-01T20:45:31.427Z,15.70
2018-09-01T20:47:59.586Z,15.80
2018-09-01T20:50:27.875Z,15.90
2018-09-01T20:52:56.108Z,15.80
2018-09-01T20:55:24.305Z,15.80
2018-09-01T20:57:52.532Z,15.80
2018-09-01T21:00:20.780Z,15.80
2018-09-01T21:02:49.022Z,15.80
2018-09-01T21:05:17.252Z,15.80
2018-09-01T21:07:45.452Z,15.90
2018-09-01T21:10:17.149Z,15.90
2018-09-01T21:12:45.309Z,16.00
2018-09-01T21:15:13.511Z,15.90
2018-09-01T21:17:41.710Z,15.80
2018-09-01T21:20:09.950Z,15.80
2018-09-01T21:22:38.160Z,15.80
2018-09-01T21:25:06.476Z,15.80
2018-09-01T21:27:34.707Z,15.90
2018-09-01T21:30:02.907Z,15.90
2018-09-01T21:32:35.532Z,16.00
2018-09-01T21:35:03.734Z,16.00
2018-09-01T21:37:31.891Z,16.10
2018-09-01T21:40:00.101Z,16.10
2018-09-01T21:42:28.411Z,16.10
2018-09-01T21:44:56.583Z,16.00
2018-09-01T21:47:24.790Z,16.00
2018-09-01T21:49:53.015Z,15.90
2018-09-01T21:52:21.442Z,16.00
2018-09-01T21:54:49.710Z,15.90
2018-09-01T21:57:17.915Z,15.90
2018-09-01T21:59:46.130Z,15.90
2018-09-01T22:02:19.560Z,15.90
2018-09-01T22:04:53.113Z,15.90
2018-09-01T22:07:22.470Z,16.00
2018-09-01T22:09:51.912Z,15.90
2018-09-01T22:12:20.680Z,16.00
2018-09-01T22:14:49.467Z,16.10
2018-09-01T22:17:17.817Z,16.00
2018-09-01T22:19:46.003Z,16.10
2018-09-01T22:22:14.237Z,16.10
2018-09-01T22:24:42.535Z,16.10
2018-09-01T22:27:10.736Z,16.00
2018-09-01T22:29:39.295Z,16.00
2018-09-01T22:32:07.519Z,16.00
2018-09-01T22:34:36.653Z,16.00
2018-09-01T22:37:05.005Z,16.00
2018-09-01T22:39:33.204Z,16.00
2018-09-01T22:42:01.558Z,15.90
2018-09-01T22:44:29.772Z,15.90
2018-09-01T22:46:59.489Z,15.80
2018-09-01T22:49:27.704Z,15.90
2018-09-01T22:51:56.459Z,15.90
2018-09-01T22:54:24.684Z,16.00
2018-09-01T22:56:52.855Z,16.00
2018-09-01T22:59:21.073Z,15.90
2018-09-01T23:01:49.272Z,15.90
2018-09-01T23:04:17.766Z,15.80
2018-09-01T23:06:45.956Z,15.80
2018-09-01T23:09:14.439Z,15.80
2018-09-01T23:11:42.640Z,15.80
2018-09-01T23:14:10.815Z,15.80
2018-09-01T23:16:39.037Z,15.90
2018-09-01T23:19:07.212Z,15.80
2018-09-01T23:21:35.415Z,15.80
2018-09-01T23:24:03.699Z,15.80
2018-09-01T23:26:31.908Z,15.90
2018-09-01T23:29:00.108Z,15.90
2018-09-01T23:31:28.366Z,15.90
2018-09-01T23:33:56.568Z,15.90
2018-09-01T23:36:24.772Z,15.90
2018-09-01T23:38:52.978Z,15.90
2018-09-01T23:41:21.212Z,15.80
2018-09-01T23:43:56.632Z,15.80
2018-09-01T23:46:25.780Z,15.80
2018-09-01T23:48:54.009Z,15.70
2018-09-01T23:51:22.187Z,15.80
2018-09-01T23:53:50.391Z,15.70
2018-09-01T23:56:18.605Z,15.80
2018-09-01T23:58:49.781Z,15.70
